Blooming Grove, Texas
Current Conditions -  °F | °C
As of 1:53 AM on Sunday 26 Oct 2014 (Local Time) from KCRS Reporting Station
Clear Clear  
Wind Chill: 67°   Ceiling: Unl
Heat Index: 67°   Visibility: 10mi
Dew Point: 60°   Wind: 8mph
Humidity: 79%   Direction: 180°S
Pressure: 30.05"   Gusts: NA
Location:  32.09°N, 96.72°W
Report Text: KCRS 260653Z AUTO 18007KT 10SM CLR 19/16 A3005 RMK AO2 SLP172 T01940156
Loading
Personal Weather Stations






























Interactive Weather Map New forecast layout! Learn more

10-Day Weather Forecast

Advertisements
Track Severe Weather on mobile